Time;durP1;ratioP1;P1;durP2;ratioP2;P2;SDS_P1;SDS_P2;PMS_P1;PMS_P2;Temp;Humidity;BMP_temperature;BMP_pressure;BME280_temperature;BME280_humidity;BME280_pressure;Samples;Min_cycle;Max_cycle;Signal;HPM_P1;HPM_P2
2023/10/06 05:58:00;;;;;;;4.20;2.30;;;;;;;;;;13015236;22;20639;-86
2023/10/06 06:08:47;;;;;;;4.73;2.43;;;;;;;;;;12951329;23;20000;-87
2023/10/06 06:19:47;;;;;;;8.80;2.67;;;;;;;;;;12949353;23;20039;-86
2023/10/06 06:41:53;;;;;;;7.70;3.23;;;;;;;;;;12948319;23;20000;-86
2023/10/06 06:46:54;;;;;;;5.30;2.53;;;;;;;;;;12922635;23;20066;-87
2023/10/06 06:51:58;;;;;;;7.07;3.30;;;;;;;;;;12924201;23;20031;-88
2023/10/06 06:56:59;;;;;;;4.40;2.30;;;;;;;;;;12914380;23;20007;-87
2023/10/06 07:02:00;;;;;;;3.70;2.33;;;;;;;;;;12915870;23;20004;-83
2023/10/06 07:07:01;;;;;;;3.13;1.98;;;;;;;;;;12923242;23;20007;-82
2023/10/06 07:12:03;;;;;;;5.43;2.33;;;;;;;;;;12947903;22;19992;-84
2023/10/06 07:17:04;;;;;;;6.60;2.90;;;;;;;;;;12951069;23;20043;-84
2023/10/06 07:22:06;;;;;;;4.68;2.50;;;;;;;;;;12908058;23;20345;-84
2023/10/06 07:27:08;;;;;;;5.93;2.67;;;;;;;;;;12933843;23;20083;-83
2023/10/06 07:32:10;;;;;;;7.32;3.30;;;;;;;;;;12933687;23;19996;-84
2023/10/06 07:37:11;;;;;;;5.72;2.83;;;;;;;;;;12921371;23;20327;-82
2023/10/06 07:42:16;;;;;;;9.13;3.30;;;;;;;;;;12915654;23;20006;-82
2023/10/06 07:47:24;;;;;;;7.60;3.00;;;;;;;;;;12911346;23;20008;-82
2023/10/06 07:52:26;;;;;;;6.85;3.53;;;;;;;;;;12911101;23;20008;-82
2023/10/06 07:57:31;;;;;;;5.07;2.78;;;;;;;;;;12937232;23;20016;-82
2023/10/06 08:02:32;;;;;;;8.32;4.60;;;;;;;;;;12913159;23;20008;-83
2023/10/06 08:07:33;;;;;;;4.10;2.22;;;;;;;;;;12940606;23;20000;-82
2023/10/06 08:12:34;;;;;;;5.25;2.70;;;;;;;;;;12914439;23;20004;-82
2023/10/06 08:17:38;;;;;;;7.03;2.60;;;;;;;;;;12914052;23;20087;-82
2023/10/06 08:22:54;;;;;;;4.70;2.80;;;;;;;;;;12912573;23;20000;-88
2023/10/06 08:56:21;;;;;;;7.38;2.88;;;;;;;;;;12946006;23;20012;-84
2023/10/06 09:02:01;;;;;;;9.23;2.85;;;;;;;;;;12913311;23;20055;-84
2023/10/06 09:12:43;;;;;;;9.88;4.20;;;;;;;;;;12939427;23;20013;-85
2023/10/06 09:18:11;;;;;;;9.30;3.50;;;;;;;;;;12940982;23;20365;-85
2023/10/06 09:23:45;;;;;;;8.27;3.13;;;;;;;;;;12914066;23;20128;-85
2023/10/06 09:29:10;;;;;;;8.63;3.92;;;;;;;;;;12914609;23;20032;-84
2023/10/06 09:34:32;;;;;;;8.93;5.05;;;;;;;;;;12914996;23;20307;-85
2023/10/06 09:39:39;;;;;;;5.78;3.65;;;;;;;;;;12911632;23;20000;-85
2023/10/06 09:44:56;;;;;;;10.85;5.43;;;;;;;;;;12929812;23;20434;-84
2023/10/06 09:55:52;;;;;;;8.40;4.70;;;;;;;;;;12938436;23;20008;-85
2023/10/06 10:06:54;;;;;;;12.05;5.78;;;;;;;;;;12938778;22;20012;-85
2023/10/06 10:12:13;;;;;;;10.55;4.63;;;;;;;;;;12945499;23;20012;-84
2023/10/06 10:23:08;;;;;;;8.50;4.82;;;;;;;;;;12950185;23;20004;-84
2023/10/06 10:28:19;;;;;;;9.35;4.45;;;;;;;;;;12927210;23;20001;-84
2023/10/06 10:34:00;;;;;;;8.05;3.70;;;;;;;;;;12915794;23;20004;-85
2023/10/06 10:39:08;;;;;;;10.48;4.13;;;;;;;;;;12914898;23;20495;-84
2023/10/06 10:44:21;;;;;;;6.50;3.28;;;;;;;;;;12910669;23;20442;-85
2023/10/06 10:49:24;;;;;;;7.50;3.60;;;;;;;;;;12954883;22;19995;-85
2023/10/06 10:54:56;;;;;;;6.55;3.47;;;;;;;;;;12979196;22;20001;-85
2023/10/06 11:05:10;;;;;;;7.32;3.08;;;;;;;;;;12945802;23;20008;-85
2023/10/06 11:10:32;;;;;;;7.85;4.30;;;;;;;;;;12948674;23;20460;-83
2023/10/06 11:15:38;;;;;;;7.47;3.70;;;;;;;;;;12923660;23;20394;-85
2023/10/06 11:20:43;;;;;;;8.43;4.25;;;;;;;;;;12947954;23;20023;-84
2023/10/06 11:25:50;;;;;;;8.27;3.88;;;;;;;;;;12922189;23;20056;-85
2023/10/06 11:31:12;;;;;;;6.85;3.58;;;;;;;;;;12919166;23;20012;-85
2023/10/06 11:36:17;;;;;;;10.25;4.43;;;;;;;;;;12915532;23;20123;-85
2023/10/06 11:41:28;;;;;;;7.00;3.13;;;;;;;;;;12894046;23;20342;-85
2023/10/06 11:46:32;;;;;;;;;;;;;;;;;;12915820;23;20431;-86
2023/10/06 11:51:40;;;;;;;6.13;3.50;;;;;;;;;;12915293;23;20310;-85
2023/10/06 11:57:12;;;;;;;8.30;5.05;;;;;;;;;;12914090;23;20009;-86
2023/10/06 12:02:35;;;;;;;6.90;3.00;;;;;;;;;;12914512;23;20004;-85
2023/10/06 12:08:12;;;;;;;6.07;3.13;;;;;;;;;;12870321;23;20079;-86
2023/10/06 12:13:17;;;;;;;9.07;3.45;;;;;;;;;;12914045;23;20023;-85
2023/10/06 12:18:19;;;;;;;6.30;3.42;;;;;;;;;;12915415;23;19997;-85
2023/10/06 12:23:20;;;;;;;7.60;3.55;;;;;;;;;;12912471;23;20058;-85
2023/10/06 12:28:23;;;;;;;8.20;3.70;;;;;;;;;;12911452;23;20012;-86
2023/10/06 12:34:03;;;;;;;8.60;3.58;;;;;;;;;;12912907;23;20377;-85
2023/10/06 12:39:30;;;;;;;5.70;3.05;;;;;;;;;;12905285;23;20005;-85
2023/10/06 12:44:31;;;;;;;8.85;3.28;;;;;;;;;;12916965;23;20050;-85
2023/10/06 12:49:50;;;;;;;8.10;3.45;;;;;;;;;;12915059;23;20008;-86
2023/10/06 12:55:10;;;;;;;9.30;4.03;;;;;;;;;;12919495;23;20008;-85
2023/10/06 13:00:12;;;;;;;9.43;3.83;;;;;;;;;;12932411;23;20159;-87
2023/10/06 13:05:16;;;;;;;8.40;3.30;;;;;;;;;;12917047;23;20004;-85
2023/10/06 13:10:24;;;;;;;8.43;4.22;;;;;;;;;;12918239;23;20039;-86
2023/10/06 13:15:29;;;;;;;8.60;3.70;;;;;;;;;;12894598;23;20415;-85
2023/10/06 13:20:30;;;;;;;7.45;3.70;;;;;;;;;;12947753;23;20023;-85
2023/10/06 13:25:31;;;;;;;8.40;4.15;;;;;;;;;;12946890;23;20469;-85
2023/10/06 13:30:34;;;;;;;7.95;3.92;;;;;;;;;;12925261;23;20358;-85
2023/10/06 13:35:39;;;;;;;7.85;3.72;;;;;;;;;;12915276;23;20015;-84
2023/10/06 13:40:54;;;;;;;9.05;3.60;;;;;;;;;;12943329;23;20007;-84
2023/10/06 13:45:57;;;;;;;8.02;3.78;;;;;;;;;;12916692;23;20011;-85
2023/10/06 13:50:59;;;;;;;6.03;3.30;;;;;;;;;;12922615;23;20008;-85
2023/10/06 13:56:00;;;;;;;6.38;3.72;;;;;;;;;;12932154;23;20008;-85
2023/10/06 14:01:04;;;;;;;7.50;4.03;;;;;;;;;;12951336;23;20058;-85
2023/10/06 14:06:20;;;;;;;6.70;3.05;;;;;;;;;;12942175;23;20007;-86
2023/10/06 14:11:21;;;;;;;7.63;3.28;;;;;;;;;;12924749;23;20507;-86
2023/10/06 14:16:38;;;;;;;8.38;4.03;;;;;;;;;;12917159;23;20334;-84
2023/10/06 14:21:44;;;;;;;7.72;4.13;;;;;;;;;;12919850;23;20004;-84
2023/10/06 14:26:45;;;;;;;5.80;3.55;;;;;;;;;;12945277;22;20008;-83
2023/10/06 14:31:58;;;;;;;6.70;3.55;;;;;;;;;;12941606;22;20024;-84
2023/10/06 14:37:01;;;;;;;10.27;4.18;;;;;;;;;;12947185;23;20008;-84
2023/10/06 14:47:23;;;;;;;8.30;3.43;;;;;;;;;;12943474;23;20441;-84
2023/10/06 14:52:31;;;;;;;5.90;2.92;;;;;;;;;;12915928;23;20035;-85
2023/10/06 14:57:34;;;;;;;5.43;2.72;;;;;;;;;;12943169;23;20004;-83
2023/10/06 15:02:36;;;;;;;7.93;3.47;;;;;;;;;;12916906;22;20333;-84
2023/10/06 15:07:38;;;;;;;6.43;3.42;;;;;;;;;;12918500;23;20012;-85
2023/10/06 15:12:41;;;;;;;6.15;3.08;;;;;;;;;;12915529;23;20020;-85
2023/10/06 15:17:43;;;;;;;5.75;3.20;;;;;;;;;;12917507;23;20083;-85
2023/10/06 15:22:47;;;;;;;7.05;3.40;;;;;;;;;;12946088;23;20000;-84
2023/10/06 15:27:53;;;;;;;7.57;3.38;;;;;;;;;;12892690;23;20089;-84
2023/10/06 15:32:55;;;;;;;6.53;3.20;;;;;;;;;;12940567;23;20015;-84
2023/10/06 15:37:57;;;;;;;6.07;3.13;;;;;;;;;;12916440;23;20066;-84
2023/10/06 15:42:58;;;;;;;7.68;4.25;;;;;;;;;;12915598;23;20100;-85
2023/10/06 15:48:12;;;;;;;7.00;4.35;;;;;;;;;;12942834;23;20010;-85
2023/10/06 15:53:13;;;;;;;9.98;4.07;;;;;;;;;;12940700;23;20004;-85
2023/10/06 15:58:15;;;;;;;7.50;3.70;;;;;;;;;;12936944;23;19996;-85
2023/10/06 16:03:22;;;;;;;7.03;3.33;;;;;;;;;;12913671;23;20062;-85
2023/10/06 16:08:23;;;;;;;5.72;3.00;;;;;;;;;;12919356;23;20008;-85
2023/10/06 16:13:24;;;;;;;8.35;3.75;;;;;;;;;;12919903;23;20442;-84
2023/10/06 16:18:29;;;;;;;5.95;3.13;;;;;;;;;;12919358;23;20026;-83
2023/10/06 16:23:31;;;;;;;6.03;2.40;;;;;;;;;;12927137;23;20047;-82
2023/10/06 16:28:32;;;;;;;6.57;2.72;;;;;;;;;;12927035;23;20059;-87
2023/10/06 16:33:36;;;;;;;6.97;3.10;;;;;;;;;;12918073;23;20012;-88
2023/10/06 16:38:38;;;;;;;5.32;3.00;;;;;;;;;;12913496;23;20004;-89
2023/10/06 16:43:40;;;;;;;5.93;3.05;;;;;;;;;;12936642;23;20020;-89
2023/10/06 16:48:41;;;;;;;8.23;3.97;;;;;;;;;;12913061;23;20474;-84
2023/10/06 16:53:43;;;;;;;4.57;2.78;;;;;;;;;;12917784;23;20011;-86
2023/10/06 16:58:45;;;;;;;6.78;3.20;;;;;;;;;;12909186;23;20337;-88
2023/10/06 17:03:47;;;;;;;7.15;3.30;;;;;;;;;;12911151;23;20087;-88
2023/10/06 17:08:54;;;;;;;5.88;3.20;;;;;;;;;;12909791;22;20091;-88
2023/10/06 17:13:55;;;;;;;6.53;2.95;;;;;;;;;;12848215;23;20001;-87
2023/10/06 17:18:56;;;;;;;5.57;2.88;;;;;;;;;;12845836;23;20435;-88
2023/10/06 17:23:57;;;;;;;6.22;2.90;;;;;;;;;;12842698;23;20036;-88
2023/10/06 17:28:59;;;;;;;6.25;3.40;;;;;;;;;;12842479;23;20036;-88
2023/10/06 17:34:00;;;;;;;6.03;2.97;;;;;;;;;;12847893;23;20004;-88
2023/10/06 17:39:05;;;;;;;7.00;2.92;;;;;;;;;;12848769;23;19993;-88
2023/10/06 17:44:06;;;;;;;7.07;3.67;;;;;;;;;;12847158;23;20004;-87
2023/10/06 17:49:08;;;;;;;6.18;3.42;;;;;;;;;;12846889;23;20007;-87
2023/10/06 17:54:09;;;;;;;6.57;3.38;;;;;;;;;;12845894;23;20008;-88
2023/10/06 17:59:15;;;;;;;5.15;3.00;;;;;;;;;;12843473;23;20107;-89
2023/10/06 18:04:16;;;;;;;7.22;3.28;;;;;;;;;;12845804;23;20009;-89
2023/10/06 18:09:17;;;;;;;7.00;3.35;;;;;;;;;;12860501;23;20014;-89
2023/10/06 18:14:18;;;;;;;6.97;3.85;;;;;;;;;;12910203;23;20011;-88
2023/10/06 18:19:19;;;;;;;6.43;3.13;;;;;;;;;;12911672;23;19996;-89
2023/10/06 18:24:21;;;;;;;4.78;2.80;;;;;;;;;;12913541;23;20008;-89
2023/10/06 18:29:25;;;;;;;6.18;3.42;;;;;;;;;;12913324;23;20015;-89
2023/10/06 18:34:26;;;;;;;7.50;3.58;;;;;;;;;;12940810;23;20039;-90
2023/10/06 18:39:27;;;;;;;7.72;3.70;;;;;;;;;;12945289;23;19997;-89
2023/10/06 18:44:28;;;;;;;7.57;3.15;;;;;;;;;;12911756;23;20062;-89
2023/10/06 18:49:29;;;;;;;6.85;3.35;;;;;;;;;;12911198;23;20059;-87
2023/10/06 18:54:30;;;;;;;6.88;3.70;;;;;;;;;;12915802;23;20490;-86
2023/10/06 18:59:31;;;;;;;7.35;3.67;;;;;;;;;;12915793;23;20027;-89
2023/10/06 19:04:32;;;;;;;8.70;3.70;;;;;;;;;;12914566;23;20011;-90
2023/10/06 19:09:34;;;;;;;7.80;3.70;;;;;;;;;;12915454;23;20016;-90
